Terminal Aerodrome Forecast
Issued by NWS Billings, MT

Home | Current Version | Previous Version | Text Only | Print | Product List | Glossary Off
Versions: 1 2 3 4 5 6 7 8 9 10 11 12 13 14 15 16 17 18 19 20 21 22 23 24 25 26 27 28 29 30 31 32 33 34 35 36

000
FTUS45 KBYZ 221736
TAFMLS
TAF
KMLS 221736Z 2218/2318 VRB06KT 3SM -SN OVC030
      TEMPO 2218/2221 31011KT 1SM -SN BR SCT008 OVC014
     FM222200 03010KT 6SM -SHSN OVC025=

USA.gov is the U.S. government's official web portal to all federal, state and local government web resources and services.